createdAt,value
2019-05-10T00:00:00.564Z,228.17
2019-05-10T00:00:05.564Z,227.83
2019-05-10T00:00:10.567Z,227.83
2019-05-10T00:00:15.567Z,227.53
2019-05-10T00:00:20.950Z,227.53
2019-05-10T00:00:26.417Z,227.26
2019-05-10T00:00:30.569Z,227.26
2019-05-10T00:00:35.570Z,231.47
2019-05-10T00:00:40.571Z,231.47
2019-05-10T00:00:45.575Z,230.78
2019-05-10T00:00:50.574Z,230.78
2019-05-10T00:00:55.575Z,230.16
2019-05-10T00:01:00.576Z,230.16
2019-05-10T00:01:05.577Z,229.62
2019-05-10T00:01:10.577Z,229.62
2019-05-10T00:01:15.578Z,229.13
2019-05-10T00:01:20.581Z,229.13
2019-05-10T00:01:25.580Z,233.16
2019-05-10T00:01:30.583Z,233.16
2019-05-10T00:01:35.710Z,228.07
2019-05-10T00:01:40.583Z,228.07
2019-05-10T00:01:45.589Z,227.73
2019-05-10T00:01:50.586Z,227.73
2019-05-10T00:01:55.587Z,227.44
2019-05-10T00:02:00.587Z,227.44
2019-05-10T00:02:05.589Z,227.17
2019-05-10T00:02:10.590Z,227.17
2019-05-10T00:02:16.043Z,222.53
2019-05-10T00:02:20.592Z,222.53
2019-05-10T00:02:25.676Z,227.30
2019-05-10T00:02:30.594Z,227.30
2019-05-10T00:02:35.597Z,227.04
2019-05-10T00:02:40.595Z,227.04
2019-05-10T00:02:45.597Z,222.27
2019-05-10T00:02:50.596Z,222.27
2019-05-10T00:02:55.600Z,227.20
2019-05-10T00:03:00.601Z,227.20
2019-05-10T00:03:05.603Z,231.77
2019-05-10T00:03:10.600Z,231.77
2019-05-10T00:03:16.180Z,230.99
2019-05-10T00:03:20.602Z,230.99
2019-05-10T00:03:25.603Z,230.31
2019-05-10T00:03:30.607Z,230.31
2019-05-10T00:03:35.609Z,229.72
2019-05-10T00:03:40.607Z,229.72
2019-05-10T00:03:45.608Z,229.19
2019-05-10T00:03:50.608Z,229.19
2019-05-10T00:03:55.609Z,228.73
2019-05-10T00:04:00.611Z,228.73
2019-05-10T00:04:05.613Z,228.33
2019-05-10T00:04:11.088Z,228.33
2019-05-10T00:04:15.613Z,227.97
2019-05-10T00:04:20.615Z,227.97
2019-05-10T00:04:25.619Z,232.18
2019-05-10T00:04:30.615Z,232.18
2019-05-10T00:04:35.665Z,231.40
2019-05-10T00:04:40.618Z,231.40
2019-05-10T00:04:45.619Z,230.71
2019-05-10T00:04:50.621Z,230.71
2019-05-10T00:04:55.905Z,225.79
2019-05-10T00:05:00.621Z,225.79
2019-05-10T00:05:05.641Z,225.70
2019-05-10T00:05:10.623Z,225.70
2019-05-10T00:05:16.018Z,225.62
2019-05-10T00:05:20.628Z,225.62
2019-05-10T00:05:25.628Z,225.56
2019-05-10T00:05:30.627Z,225.56
2019-05-10T00:05:35.630Z,225.50
2019-05-10T00:05:40.630Z,225.50
2019-05-10T00:05:45.633Z,225.44
2019-05-10T00:05:50.633Z,225.44
2019-05-10T00:05:55.633Z,225.40
2019-05-10T00:06:01.121Z,225.40
2019-05-10T00:06:05.636Z,225.36
2019-05-10T00:06:10.635Z,225.36
2019-05-10T00:06:15.636Z,225.32
2019-05-10T00:06:20.641Z,225.32
2019-05-10T00:06:25.639Z,225.29
2019-05-10T00:06:30.641Z,225.29
2019-05-10T00:06:35.769Z,225.26
2019-05-10T00:06:40.968Z,225.26
2019-05-10T00:06:45.643Z,225.23
2019-05-10T00:06:50.643Z,225.23
2019-05-10T00:06:55.645Z,220.92
2019-05-10T00:07:00.645Z,220.92
2019-05-10T00:07:05.649Z,221.35
2019-05-10T00:07:10.834Z,221.35
2019-05-10T00:07:15.647Z,221.73
2019-05-10T00:07:20.650Z,221.73
2019-05-10T00:07:25.650Z,222.07
2019-05-10T00:07:30.652Z,222.07
2019-05-10T00:07:35.653Z,222.38
2019-05-10T00:07:40.653Z,222.38
2019-05-10T00:07:45.653Z,222.65
2019-05-10T00:07:50.657Z,222.65
2019-05-10T00:07:55.656Z,222.89
2019-05-10T00:08:00.656Z,222.89
2019-05-10T00:08:05.658Z,223.11
2019-05-10T00:08:10.662Z,223.11
2019-05-10T00:08:15.660Z,223.30
2019-05-10T00:08:20.664Z,223.30
2019-05-10T00:08:25.661Z,219.18
2019-05-10T00:08:30.662Z,219.18
2019-05-10T00:08:35.664Z,219.78
2019-05-10T00:08:40.664Z,219.78
2019-05-10T00:08:45.667Z,218.01
2019-05-10T00:08:50.668Z,218.01
2019-05-10T00:08:55.669Z,214.26
2019-05-10T00:09:00.668Z,214.26
2019-05-10T00:09:05.671Z,215.39
2019-05-10T00:09:10.671Z,215.39
2019-05-10T00:09:15.671Z,222.12
2019-05-10T00:09:20.673Z,222.12
2019-05-10T00:09:25.674Z,222.45
2019-05-10T00:09:30.676Z,222.45
2019-05-10T00:09:35.686Z,227.48
2019-05-10T00:09:40.676Z,227.48
2019-05-10T00:09:45.678Z,227.19
2019-05-10T00:09:50.677Z,227.19
2019-05-10T00:09:55.736Z,226.94
2019-05-10T00:10:00.679Z,226.94
2019-05-10T00:10:05.682Z,226.72
2019-05-10T00:10:10.680Z,226.72
2019-05-10T00:10:15.684Z,226.53
2019-05-10T00:10:21.111Z,226.53
2019-05-10T00:10:25.687Z,226.36
2019-05-10T00:10:30.685Z,226.36
2019-05-10T00:10:35.688Z,226.21
2019-05-10T00:10:40.689Z,226.21
2019-05-10T00:10:45.696Z,226.08
2019-05-10T00:10:50.691Z,226.08
2019-05-10T00:10:55.690Z,225.96
2019-05-10T00:11:00.755Z,225.96
2019-05-10T00:11:05.693Z,223.51
2019-05-10T00:11:10.694Z,223.51
2019-05-10T00:11:15.963Z,228.09
2019-05-10T00:11:20.697Z,228.09
2019-05-10T00:11:25.696Z,227.75
2019-05-10T00:11:30.728Z,227.75
2019-05-10T00:11:35.728Z,227.45
2019-05-10T00:11:40.730Z,227.45
2019-05-10T00:11:45.730Z,227.19
2019-05-10T00:11:50.733Z,227.19
2019-05-10T00:11:55.731Z,224.62
2019-05-10T00:12:00.732Z,224.62
2019-05-10T00:12:05.734Z,229.10
2019-05-10T00:12:10.736Z,229.10
2019-05-10T00:12:15.736Z,228.65
2019-05-10T00:12:20.736Z,228.65
2019-05-10T00:12:25.738Z,232.83
2019-05-10T00:12:30.741Z,232.83
2019-05-10T00:12:35.741Z,231.98
2019-05-10T00:12:40.742Z,231.98
2019-05-10T00:12:45.741Z,235.89
2019-05-10T00:12:50.743Z,235.89
2019-05-10T00:12:55.744Z,239.47
2019-05-10T00:13:00.748Z,239.47
2019-05-10T00:13:05.813Z,237.89
2019-05-10T00:13:10.747Z,237.89
2019-05-10T00:13:15.747Z,236.49
2019-05-10T00:13:20.748Z,236.49
2019-05-10T00:13:25.756Z,232.95
2019-05-10T00:13:30.750Z,232.95
2019-05-10T00:13:35.785Z,236.80
2019-05-10T00:13:40.754Z,236.80
2019-05-10T00:13:45.753Z,235.51
2019-05-10T00:13:50.753Z,235.51
2019-05-10T00:13:55.756Z,232.04
2019-05-10T00:14:00.755Z,232.04
2019-05-10T00:14:05.758Z,231.27
2019-05-10T00:14:10.758Z,231.27
2019-05-10T00:14:15.758Z,230.59
2019-05-10T00:14:20.760Z,230.59
2019-05-10T00:14:25.761Z,227.64
2019-05-10T00:14:30.762Z,227.64
2019-05-10T00:14:35.832Z,227.35
2019-05-10T00:14:40.763Z,227.35
2019-05-10T00:14:45.766Z,231.63
2019-05-10T00:14:50.765Z,231.63
2019-05-10T00:14:55.770Z,230.91
2019-05-10T00:15:01.988Z,230.91
2019-05-10T00:15:05.771Z,230.27
2019-05-10T00:15:10.775Z,230.27
2019-05-10T00:15:15.771Z,229.71
2019-05-10T00:15:20.770Z,229.71
2019-05-10T00:15:25.774Z,226.89
2019-05-10T00:15:30.773Z,226.89
2019-05-10T00:15:35.774Z,226.68
2019-05-10T00:15:40.775Z,226.68
2019-05-10T00:15:45.776Z,230.97
2019-05-10T00:15:50.777Z,230.97
2019-05-10T00:15:55.778Z,227.99
2019-05-10T00:16:00.779Z,227.99
2019-05-10T00:16:06.028Z,227.66
2019-05-10T00:16:10.783Z,227.66
2019-05-10T00:16:15.782Z,227.38
2019-05-10T00:16:20.887Z,227.38
2019-05-10T00:16:25.783Z,224.78
2019-05-10T00:16:30.786Z,224.78
2019-05-10T00:16:35.785Z,220.34
2019-05-10T00:16:40.788Z,220.34
2019-05-10T00:16:45.787Z,220.85
2019-05-10T00:16:50.789Z,220.85
2019-05-10T00:16:55.791Z,221.30
2019-05-10T00:17:00.791Z,221.30
2019-05-10T00:17:05.793Z,221.69
2019-05-10T00:17:10.805Z,221.69
2019-05-10T00:17:15.793Z,222.04
2019-05-10T00:17:20.794Z,222.04
2019-05-10T00:17:25.797Z,222.36
2019-05-10T00:17:30.796Z,222.36
2019-05-10T00:17:35.798Z,222.63
2019-05-10T00:17:40.799Z,222.63
2019-05-10T00:17:45.799Z,222.88
2019-05-10T00:17:50.801Z,222.88
2019-05-10T00:17:55.802Z,223.10
2019-05-10T00:18:00.803Z,223.10
2019-05-10T00:18:05.812Z,227.58
2019-05-10T00:18:10.889Z,227.58
2019-05-10T00:18:15.804Z,222.94
2019-05-10T00:18:20.806Z,222.94
2019-05-10T00:18:25.809Z,227.64
2019-05-10T00:18:30.809Z,227.64
2019-05-10T00:18:35.813Z,227.35
2019-05-10T00:18:40.812Z,227.35
2019-05-10T00:18:45.812Z,227.09
2019-05-10T00:18:50.813Z,227.09
2019-05-10T00:18:55.815Z,226.87
2019-05-10T00:19:00.815Z,226.87
2019-05-10T00:19:05.817Z,222.22
2019-05-10T00:19:10.815Z,222.22
2019-05-10T00:19:15.819Z,222.52
2019-05-10T00:19:20.818Z,222.52
2019-05-10T00:19:25.819Z,222.79
2019-05-10T00:19:30.821Z,222.79
2019-05-10T00:19:35.821Z,223.03
2019-05-10T00:19:40.823Z,223.03
2019-05-10T00:19:45.824Z,223.24
2019-05-10T00:19:50.828Z,223.24
2019-05-10T00:19:55.827Z,227.82
2019-05-10T00:20:00.826Z,227.82
2019-05-10T00:20:05.828Z,227.51
2019-05-10T00:20:10.828Z,227.51
2019-05-10T00:20:15.829Z,227.24
2019-05-10T00:20:20.832Z,227.24
2019-05-10T00:20:25.831Z,227.00
2019-05-10T00:20:30.833Z,227.00
2019-05-10T00:20:35.833Z,226.79
2019-05-10T00:20:40.835Z,226.79
2019-05-10T00:20:46.099Z,222.24
2019-05-10T00:20:50.836Z,222.24
2019-05-10T00:20:55.837Z,222.54
2019-05-10T00:21:00.837Z,222.54
2019-05-10T00:21:05.837Z,222.80
2019-05-10T00:21:10.839Z,222.80
2019-05-10T00:21:15.842Z,223.04
2019-05-10T00:21:20.845Z,223.04
2019-05-10T00:21:25.843Z,223.25
2019-05-10T00:21:30.843Z,223.25
2019-05-10T00:21:35.845Z,223.43
2019-05-10T00:21:40.850Z,223.43
2019-05-10T00:21:45.847Z,223.59
2019-05-10T00:21:50.849Z,223.59
2019-05-10T00:21:55.850Z,223.74
2019-05-10T00:22:00.849Z,223.74
2019-05-10T00:22:05.853Z,223.87
2019-05-10T00:22:10.855Z,223.87
2019-05-10T00:22:15.854Z,223.99
2019-05-10T00:22:20.855Z,223.99
2019-05-10T00:22:25.903Z,224.09
2019-05-10T00:22:30.871Z,224.09
2019-05-10T00:22:35.858Z,219.89
2019-05-10T00:22:40.886Z,219.89
2019-05-10T00:22:45.859Z,220.42
2019-05-10T00:22:50.860Z,220.42
2019-05-10T00:22:55.862Z,220.90
2019-05-10T00:23:00.861Z,220.90
2019-05-10T00:23:05.863Z,221.32
2019-05-10T00:23:10.870Z,221.32
2019-05-10T00:23:15.866Z,221.71
2019-05-10T00:23:20.888Z,221.71
2019-05-10T00:23:25.868Z,222.05
2019-05-10T00:23:30.870Z,222.05
2019-05-10T00:23:35.869Z,222.35
2019-05-10T00:23:40.870Z,222.35
2019-05-10T00:23:45.871Z,226.83
2019-05-10T00:23:50.872Z,226.64
2019-05-10T00:23:55.871Z,226.64
2019-05-10T00:24:00.876Z,222.14
2019-05-10T00:24:05.899Z,222.14
2019-05-10T00:24:10.875Z,222.45
2019-05-10T00:24:15.876Z,222.45
2019-05-10T00:24:20.878Z,222.72
2019-05-10T00:24:25.877Z,222.72
2019-05-10T00:24:30.878Z,222.96
2019-05-10T00:24:35.879Z,222.96
2019-05-10T00:24:40.881Z,223.17
2019-05-10T00:24:45.884Z,223.17
2019-05-10T00:24:50.883Z,227.68
2019-05-10T00:24:55.886Z,227.68
2019-05-10T00:25:00.885Z,227.40
2019-05-10T00:25:05.888Z,227.40
2019-05-10T00:25:10.888Z,227.14
2019-05-10T00:25:15.888Z,227.14
2019-05-10T00:25:20.887Z,222.56
2019-05-10T00:25:25.890Z,222.56
2019-05-10T00:25:30.894Z,222.83
2019-05-10T00:25:35.890Z,222.83
2019-05-10T00:25:40.892Z,220.68
2019-05-10T00:25:45.898Z,220.68
2019-05-10T00:25:50.895Z,221.14
2019-05-10T00:25:56.614Z,221.14
2019-05-10T00:26:00.894Z,221.55
2019-05-10T00:26:05.897Z,221.55
2019-05-10T00:26:10.897Z,226.23
2019-05-10T00:26:15.898Z,226.23
2019-05-10T00:26:20.899Z,226.10
2019-05-10T00:26:25.901Z,226.10
2019-05-10T00:26:30.901Z,225.98
2019-05-10T00:26:35.948Z,225.98
2019-05-10T00:26:40.905Z,225.88
2019-05-10T00:26:45.904Z,225.88
2019-05-10T00:26:50.905Z,225.79
2019-05-10T00:26:55.906Z,225.79
2019-05-10T00:27:00.906Z,225.70
2019-05-10T00:27:06.396Z,225.70
2019-05-10T00:27:10.909Z,225.63
2019-05-10T00:27:15.910Z,225.63
2019-05-10T00:27:20.911Z,225.56
2019-05-10T00:27:25.915Z,225.56
2019-05-10T00:27:30.913Z,225.51
2019-05-10T00:27:35.917Z,225.51
2019-05-10T00:27:40.916Z,225.45
2019-05-10T00:27:45.916Z,225.45
2019-05-10T00:27:50.931Z,225.41
2019-05-10T00:27:55.919Z,225.41
2019-05-10T00:28:00.918Z,221.09
2019-05-10T00:28:05.923Z,221.09
2019-05-10T00:28:10.920Z,225.79
2019-05-10T00:28:15.922Z,225.79
2019-05-10T00:28:20.927Z,225.70
2019-05-10T00:28:25.925Z,225.70
2019-05-10T00:28:30.926Z,230.10
2019-05-10T00:28:35.928Z,230.10
2019-05-10T00:28:40.926Z,225.14
2019-05-10T00:28:45.929Z,225.14
2019-05-10T00:28:50.932Z,225.12
2019-05-10T00:28:55.930Z,225.12
2019-05-10T00:29:00.931Z,225.11
2019-05-10T00:29:05.935Z,225.11
2019-05-10T00:29:10.940Z,229.65
2019-05-10T00:29:15.938Z,229.65
2019-05-10T00:29:20.934Z,229.14
2019-05-10T00:29:25.936Z,229.14
2019-05-10T00:29:30.938Z,228.68
2019-05-10T00:29:35.937Z,228.68
2019-05-10T00:29:40.938Z,228.28
2019-05-10T00:29:45.941Z,228.28
2019-05-10T00:29:50.942Z,223.51
2019-05-10T00:29:55.941Z,223.51
2019-05-10T00:30:00.941Z,223.68
2019-05-10T00:30:05.945Z,223.68
2019-05-10T00:30:10.946Z,223.82
2019-05-10T00:30:15.948Z,223.82
2019-05-10T00:30:20.945Z,223.95
2019-05-10T00:30:26.079Z,223.95
2019-05-10T00:30:30.950Z,219.56
2019-05-10T00:30:35.950Z,219.56
2019-05-10T00:30:40.951Z,220.15
2019-05-10T00:30:45.953Z,220.15
2019-05-10T00:30:50.952Z,220.68
2019-05-10T00:30:55.954Z,220.68
2019-05-10T00:31:01.170Z,216.57
2019-05-10T00:31:05.973Z,216.57
2019-05-10T00:31:10.976Z,221.79
2019-05-10T00:31:15.977Z,221.79
2019-05-10T00:31:20.976Z,217.41
2019-05-10T00:31:25.977Z,217.41
2019-05-10T00:31:30.978Z,218.26
2019-05-10T00:31:35.980Z,218.26
2019-05-10T00:31:40.982Z,219.01
2019-05-10T00:31:45.980Z,219.01
2019-05-10T00:31:50.982Z,224.13
2019-05-10T00:31:55.982Z,224.13
2019-05-10T00:32:00.983Z,224.23
2019-05-10T00:32:05.985Z,224.23
2019-05-10T00:32:10.987Z,224.32
2019-05-10T00:32:15.989Z,224.32
2019-05-10T00:32:20.989Z,219.76
2019-05-10T00:32:25.990Z,219.76
2019-05-10T00:32:31.358Z,220.35
2019-05-10T00:32:35.992Z,220.35
2019-05-10T00:32:40.993Z,220.87
2019-05-10T00:32:45.993Z,220.87
2019-05-10T00:32:50.993Z,221.32
2019-05-10T00:32:55.995Z,221.32
2019-05-10T00:33:00.996Z,221.72
2019-05-10T00:33:05.997Z,221.72
2019-05-10T00:33:10.999Z,222.07
2019-05-10T00:33:26.351Z,225.00
2019-05-10T00:33:31.353Z,225.00
2019-05-10T00:33:36.352Z,225.00
2019-05-10T00:33:41.355Z,225.00
2019-05-10T00:33:46.357Z,225.00
2019-05-10T00:33:51.356Z,225.00
2019-05-10T00:33:56.356Z,225.00
2019-05-10T00:34:01.394Z,225.00
2019-05-10T00:34:06.360Z,219.56
2019-05-10T00:34:11.361Z,219.56
2019-05-10T00:34:16.360Z,220.73
2019-05-10T00:34:21.362Z,220.73
2019-05-10T00:34:26.364Z,221.56
2019-05-10T00:34:31.363Z,221.56
2019-05-10T00:34:36.365Z,222.17
2019-05-10T00:34:41.367Z,222.17
2019-05-10T00:34:46.610Z,222.63
2019-05-10T00:34:51.367Z,222.63
2019-05-10T00:34:56.367Z,216.41
2019-05-10T00:35:01.369Z,216.41
2019-05-10T00:35:06.372Z,217.70
2019-05-10T00:35:11.375Z,217.70
2019-05-10T00:35:16.447Z,212.52
2019-05-10T00:35:21.374Z,212.52
2019-05-10T00:35:26.380Z,219.77
2019-05-10T00:35:31.375Z,219.77
2019-05-10T00:35:36.376Z,220.51
2019-05-10T00:35:41.377Z,220.51
2019-05-10T00:35:46.379Z,221.13
2019-05-10T00:35:51.379Z,221.13
2019-05-10T00:35:56.380Z,227.07
2019-05-10T00:36:01.383Z,227.07
2019-05-10T00:36:06.414Z,232.42
2019-05-10T00:36:11.383Z,232.42
2019-05-10T00:36:16.769Z,226.13
2019-05-10T00:36:21.385Z,226.13
2019-05-10T00:36:26.387Z,225.98
2019-05-10T00:36:31.387Z,225.98
2019-05-10T00:36:36.388Z,220.47
2019-05-10T00:36:41.697Z,220.47
2019-05-10T00:36:46.391Z,221.05
2019-05-10T00:36:51.392Z,221.05
2019-05-10T00:36:56.391Z,216.19
2019-05-10T00:37:01.393Z,216.19
2019-05-10T00:37:06.395Z,217.29
2019-05-10T00:37:11.395Z,217.29
2019-05-10T00:37:16.396Z,223.14
2019-05-10T00:37:21.398Z,223.14
2019-05-10T00:37:26.397Z,223.37
2019-05-10T00:37:31.399Z,223.37
2019-05-10T00:37:36.398Z,218.43
2019-05-10T00:37:41.401Z,218.43
2019-05-10T00:37:46.401Z,213.97
2019-05-10T00:37:51.402Z,213.97
2019-05-10T00:37:56.404Z,215.31
2019-05-10T00:38:01.404Z,215.31
2019-05-10T00:38:06.405Z,211.27
2019-05-10T00:38:11.406Z,211.27
2019-05-10T00:38:16.407Z,207.66
2019-05-10T00:38:21.409Z,207.66
2019-05-10T00:38:27.280Z,209.70
2019-05-10T00:38:31.411Z,209.70
2019-05-10T00:38:36.412Z,215.86
2019-05-10T00:38:41.412Z,215.86
2019-05-10T00:38:46.412Z,216.97
2019-05-10T00:38:51.414Z,216.97
2019-05-10T00:38:56.418Z,217.91
2019-05-10T00:39:01.421Z,217.91
2019-05-10T00:39:06.418Z,218.74
2019-05-10T00:39:11.417Z,218.74
2019-05-10T00:39:16.420Z,219.46
2019-05-10T00:39:21.420Z,219.46
2019-05-10T00:39:26.420Z,215.24
2019-05-10T00:39:31.424Z,215.24
2019-05-10T00:39:36.424Z,216.35
2019-05-10T00:39:41.423Z,216.35
2019-05-10T00:39:46.425Z,217.32
2019-05-10T00:39:51.426Z,217.32
2019-05-10T00:39:56.428Z,218.17
2019-05-10T00:40:01.430Z,218.17
2019-05-10T00:40:06.429Z,218.92
2019-05-10T00:40:11.430Z,218.92
2019-05-10T00:40:16.432Z,219.58
2019-05-10T00:40:21.432Z,219.58
2019-05-10T00:40:26.432Z,215.54
2019-05-10T00:40:31.433Z,215.54
2019-05-10T00:40:36.434Z,216.57
2019-05-10T00:40:41.610Z,216.57
2019-05-10T00:40:46.436Z,217.49
2019-05-10T00:40:51.438Z,217.49
2019-05-10T00:40:56.440Z,218.29
2019-05-10T00:41:01.439Z,218.29
2019-05-10T00:41:06.441Z,219.01
2019-05-10T00:41:11.441Z,219.01
2019-05-10T00:41:16.442Z,219.65
2019-05-10T00:41:21.443Z,219.65
2019-05-10T00:41:26.446Z,215.69
2019-05-10T00:41:31.447Z,215.69
2019-05-10T00:41:36.446Z,216.69
2019-05-10T00:41:41.447Z,216.69
2019-05-10T00:41:46.449Z,217.57
2019-05-10T00:41:51.449Z,217.57
2019-05-10T00:41:56.450Z,218.36
2019-05-10T00:42:01.452Z,218.36
2019-05-10T00:42:06.453Z,219.06
2019-05-10T00:42:11.674Z,219.06
2019-05-10T00:42:16.454Z,223.90
2019-05-10T00:42:22.066Z,223.90
2019-05-10T00:42:26.458Z,219.49
2019-05-10T00:42:31.456Z,219.49
2019-05-10T00:42:36.458Z,220.10
2019-05-10T00:42:42.120Z,220.10
2019-05-10T00:42:46.461Z,220.63
2019-05-10T00:42:51.460Z,220.63
2019-05-10T00:42:56.465Z,216.51
2019-05-10T00:43:01.464Z,216.51
2019-05-10T00:43:06.463Z,217.43
2019-05-10T00:43:11.934Z,217.43
2019-05-10T00:43:16.467Z,218.25
2019-05-10T00:43:21.468Z,218.25
2019-05-10T00:43:27.081Z,218.98
2019-05-10T00:43:31.468Z,218.98
2019-05-10T00:43:36.469Z,223.91
2019-05-10T00:43:41.470Z,223.91
2019-05-10T00:43:46.542Z,224.03
2019-05-10T00:43:51.472Z,224.03
2019-05-10T00:43:56.474Z,224.14
2019-05-10T00:44:01.476Z,224.14
2019-05-10T00:44:06.477Z,224.23
2019-05-10T00:44:11.476Z,224.23
2019-05-10T00:44:16.477Z,221.95
2019-05-10T00:44:21.478Z,221.95
2019-05-10T00:44:26.479Z,222.27
2019-05-10T00:44:31.518Z,222.27
2019-05-10T00:44:36.517Z,222.56
2019-05-10T00:44:41.517Z,222.56
2019-05-10T00:44:46.517Z,222.82
2019-05-10T00:44:51.522Z,222.82
2019-05-10T00:44:56.522Z,223.05
2019-05-10T00:45:01.525Z,223.05
2019-05-10T00:45:06.522Z,223.25
2019-05-10T00:45:11.524Z,223.25
2019-05-10T00:45:16.524Z,223.43
2019-05-10T00:45:21.527Z,223.43
2019-05-10T00:45:26.526Z,223.60
2019-05-10T00:45:31.534Z,223.60
2019-05-10T00:45:36.529Z,223.74
2019-05-10T00:45:41.528Z,223.74
2019-05-10T00:45:46.529Z,223.87
2019-05-10T00:45:51.570Z,223.87
2019-05-10T00:45:56.532Z,223.99
2019-05-10T00:46:01.759Z,223.99
2019-05-10T00:46:06.881Z,224.09
2019-05-10T00:46:11.535Z,224.09
2019-05-10T00:46:16.542Z,224.18
2019-05-10T00:46:21.538Z,224.18
2019-05-10T00:46:26.540Z,224.27
2019-05-10T00:46:31.539Z,224.27
2019-05-10T00:46:36.545Z,222.09
2019-05-10T00:46:41.543Z,222.09
2019-05-10T00:46:46.625Z,218.07
2019-05-10T00:46:51.544Z,218.07
2019-05-10T00:46:56.544Z,218.79
2019-05-10T00:47:01.545Z,218.79
2019-05-10T00:47:06.545Z,219.43
2019-05-10T00:47:11.549Z,219.43
2019-05-10T00:47:16.548Z,220.01
2019-05-10T00:47:21.550Z,220.01
2019-05-10T00:47:26.550Z,224.70
2019-05-10T00:47:31.551Z,224.70
2019-05-10T00:47:36.551Z,220.30
2019-05-10T00:47:45.017Z,220.30
2019-05-10T00:47:46.553Z,218.40
2019-05-10T00:47:52.108Z,218.40
2019-05-10T00:47:56.561Z,219.11
2019-05-10T00:48:01.557Z,219.11
2019-05-10T00:48:06.560Z,215.16
2019-05-10T00:48:11.559Z,215.16
2019-05-10T00:48:16.558Z,216.22
2019-05-10T00:48:21.560Z,216.22
2019-05-10T00:48:26.560Z,212.51
2019-05-10T00:48:31.564Z,212.51
2019-05-10T00:48:36.562Z,213.86
2019-05-10T00:48:41.563Z,213.86
2019-05-10T00:48:46.565Z,215.05
2019-05-10T00:48:51.888Z,215.05
2019-05-10T00:48:57.581Z,216.11
2019-05-10T00:49:01.571Z,216.11
2019-05-10T00:49:06.803Z,217.06
2019-05-10T00:49:11.572Z,217.06
2019-05-10T00:49:16.570Z,217.90
2019-05-10T00:49:21.573Z,217.90
2019-05-10T00:49:26.573Z,218.64
2019-05-10T00:49:31.575Z,218.64
2019-05-10T00:49:36.577Z,219.31
2019-05-10T00:49:41.579Z,219.31
2019-05-10T00:49:46.579Z,219.90
2019-05-10T00:49:51.668Z,219.90
2019-05-10T00:49:56.578Z,220.43
2019-05-10T00:50:01.579Z,220.43
2019-05-10T00:50:06.583Z,225.11
2019-05-10T00:50:11.581Z,225.11
2019-05-10T00:50:16.582Z,225.10
2019-05-10T00:50:21.583Z,225.10
2019-05-10T00:50:26.585Z,225.09
2019-05-10T00:50:31.592Z,225.09
2019-05-10T00:50:36.586Z,225.08
2019-05-10T00:50:41.587Z,225.08
2019-05-10T00:50:46.588Z,220.71
2019-05-10T00:50:51.591Z,220.71
2019-05-10T00:50:56.591Z,221.17
2019-05-10T00:51:01.598Z,221.17
2019-05-10T00:51:07.147Z,221.58
2019-05-10T00:51:11.593Z,221.58
2019-05-10T00:51:16.596Z,217.46
2019-05-10T00:51:21.884Z,217.46
2019-05-10T00:51:26.597Z,213.65
2019-05-10T00:51:31.599Z,213.65
2019-05-10T00:51:36.598Z,214.87
2019-05-10T00:51:41.600Z,214.87
2019-05-10T00:51:46.599Z,211.28
2019-05-10T00:51:51.601Z,211.28
2019-05-10T00:51:56.602Z,212.76
2019-05-10T00:52:01.823Z,212.76
2019-05-10T00:52:06.604Z,209.36
2019-05-10T00:52:11.609Z,209.36
2019-05-10T00:52:16.607Z,211.04
2019-05-10T00:52:21.607Z,211.04
2019-05-10T00:52:26.607Z,212.54
2019-05-10T00:52:31.612Z,212.54
2019-05-10T00:52:36.609Z,213.87
2019-05-10T00:52:41.613Z,213.87
2019-05-10T00:52:46.611Z,215.05
2019-05-10T00:52:51.613Z,215.05
2019-05-10T00:52:56.616Z,216.11
2019-05-10T00:53:01.615Z,216.11
2019-05-10T00:53:06.975Z,217.04
2019-05-10T00:53:12.026Z,217.04
2019-05-10T00:53:16.619Z,217.88
2019-05-10T00:53:21.620Z,217.88
2019-05-10T00:53:26.623Z,214.12
2019-05-10T00:53:31.621Z,214.12
2019-05-10T00:53:36.622Z,210.64
2019-05-10T00:53:41.624Z,210.64
2019-05-10T00:53:46.622Z,212.17
2019-05-10T00:53:51.626Z,212.17
2019-05-10T00:53:56.624Z,208.87
2019-05-10T00:54:01.626Z,208.87
2019-05-10T00:54:06.627Z,210.58
2019-05-10T00:54:11.629Z,210.58
2019-05-10T00:54:16.629Z,212.11
2019-05-10T00:54:21.630Z,212.11
2019-05-10T00:54:26.630Z,213.48
2019-05-10T00:54:31.632Z,213.48
2019-05-10T00:54:36.636Z,220.26
2019-05-10T00:54:41.633Z,220.26
2019-05-10T00:54:46.636Z,220.82
2019-05-10T00:54:51.637Z,220.82
2019-05-10T00:54:56.638Z,221.31
2019-05-10T00:55:01.639Z,221.31
2019-05-10T00:55:07.129Z,221.73
2019-05-10T00:55:11.640Z,221.73
2019-05-10T00:55:16.641Z,217.31
2019-05-10T00:55:21.642Z,217.31
2019-05-10T00:55:26.644Z,218.19
2019-05-10T00:55:31.645Z,218.19
2019-05-10T00:55:36.644Z,218.95
2019-05-10T00:55:41.647Z,218.95
2019-05-10T00:55:46.647Z,219.62
2019-05-10T00:55:51.647Z,219.62
2019-05-10T00:55:56.649Z,220.21
2019-05-10T00:56:01.649Z,220.21
2019-05-10T00:56:06.653Z,220.73
2019-05-10T00:56:11.650Z,220.73
2019-05-10T00:56:16.652Z,221.19
2019-05-10T00:56:21.655Z,221.19
2019-05-10T00:56:26.656Z,221.60
2019-05-10T00:56:31.655Z,221.60
2019-05-10T00:56:36.656Z,221.96
2019-05-10T00:56:41.657Z,221.96
2019-05-10T00:56:46.657Z,222.28
2019-05-10T00:56:51.746Z,222.28
2019-05-10T00:56:56.661Z,222.57
2019-05-10T00:57:01.806Z,222.57
2019-05-10T00:57:06.662Z,222.82
2019-05-10T00:57:11.664Z,222.82
2019-05-10T00:57:16.663Z,223.05
2019-05-10T00:57:21.665Z,223.05
2019-05-10T00:57:26.667Z,218.88
2019-05-10T00:57:31.668Z,218.88
2019-05-10T00:57:36.667Z,219.53
2019-05-10T00:57:41.669Z,219.53
2019-05-10T00:57:46.670Z,220.11
2019-05-10T00:57:51.671Z,220.11
2019-05-10T00:57:56.672Z,220.62
2019-05-10T00:58:01.673Z,220.62
2019-05-10T00:58:06.673Z,221.07
2019-05-10T00:58:11.675Z,221.07
2019-05-10T00:58:16.677Z,221.48
2019-05-10T00:58:21.677Z,221.48
2019-05-10T00:58:26.678Z,221.84
2019-05-10T00:58:31.680Z,221.84
2019-05-10T00:58:36.679Z,222.17
2019-05-10T00:58:42.318Z,222.17
2019-05-10T00:58:46.680Z,222.46
2019-05-10T00:58:51.682Z,222.46
2019-05-10T00:58:56.683Z,222.72
2019-05-10T00:59:01.687Z,222.72
2019-05-10T00:59:06.686Z,218.64
2019-05-10T00:59:11.686Z,218.64
2019-05-10T00:59:16.688Z,219.30
2019-05-10T00:59:21.688Z,219.30
2019-05-10T00:59:26.691Z,219.90
2019-05-10T00:59:31.690Z,219.90
2019-05-10T00:59:36.690Z,220.42
2019-05-10T00:59:42.322Z,220.42
2019-05-10T00:59:46.692Z,220.90
2019-05-10T00:59:51.694Z,220.90
2019-05-10T00:59:56.699Z,221.32
2019-05-10T01:00:01.696Z,221.32
2019-05-10T01:00:06.902Z,221.70
2019-05-10T01:00:11.699Z,221.70
2019-05-10T01:00:16.996Z,222.03
2019-05-10T01:00:21.702Z,222.03
2019-05-10T01:00:26.700Z,222.34
2019-05-10T01:00:31.704Z,222.34
2019-05-10T01:00:36.706Z,222.61
2019-05-10T01:00:41.706Z,222.61
2019-05-10T01:00:46.704Z,222.85
2019-05-10T01:00:52.182Z,222.85
2019-05-10T01:00:56.707Z,223.07
2019-05-10T01:01:01.711Z,223.07
2019-05-10T01:01:06.712Z,223.27
2019-05-10T01:01:11.710Z,223.27
2019-05-10T01:01:16.713Z,223.44
2019-05-10T01:01:21.713Z,223.44
2019-05-10T01:01:26.713Z,223.60
2019-05-10T01:01:32.001Z,223.60
2019-05-10T01:01:36.715Z,219.50
2019-05-10T01:01:41.718Z,219.50
2019-05-10T01:01:46.725Z,224.23
2019-05-10T01:01:51.720Z,224.23
2019-05-10T01:01:57.143Z,224.32
2019-05-10T01:02:01.722Z,224.32
2019-05-10T01:02:06.727Z,224.39
2019-05-10T01:02:11.726Z,224.39
2019-05-10T01:02:16.723Z,224.45
2019-05-10T01:02:21.724Z,224.45
2019-05-10T01:02:26.724Z,224.51
2019-05-10T01:02:31.727Z,224.51